createdAt,value
2022-09-04T00:03:34.537Z,998.12
2022-09-04T00:09:20.657Z,998.15
2022-09-04T00:15:08.386Z,998.18
2022-09-04T00:20:56.358Z,998.19
2022-09-04T00:26:50.385Z,998.19
2022-09-04T00:32:38.958Z,998.25
2022-09-04T00:38:23.926Z,998.34
2022-09-04T00:44:21.634Z,998.39
2022-09-04T00:50:13.878Z,998.47
2022-09-04T00:56:04.734Z,998.59
2022-09-04T01:01:48.596Z,998.58
2022-09-04T01:07:39.170Z,998.64
2022-09-04T01:13:29.066Z,998.71
2022-09-04T01:19:17.324Z,998.7
2022-09-04T01:25:04.950Z,998.73
2022-09-04T01:30:51.019Z,998.77
2022-09-04T01:36:37.308Z,998.79
2022-09-04T01:42:23.903Z,998.88
2022-09-04T01:48:07.972Z,998.9
2022-09-04T01:53:54.211Z,998.97
2022-09-04T01:59:42.305Z,999
2022-09-04T02:05:29.718Z,999.05
2022-09-04T02:11:15.655Z,999.15
2022-09-04T02:17:06.431Z,999.12
2022-09-04T02:22:54.670Z,999.18
2022-09-04T02:28:45.310Z,999.22
2022-09-04T02:34:32.296Z,999.2
2022-09-04T02:40:19.998Z,999.27
2022-09-04T02:46:06.314Z,999.32
2022-09-04T02:52:01.270Z,999.38
2022-09-04T02:57:51.407Z,999.35
2022-09-04T03:03:40.529Z,999.4
2022-09-04T03:09:30.222Z,999.37
2022-09-04T03:15:18.179Z,999.46
2022-09-04T03:21:04.198Z,999.53
2022-09-04T03:26:49.054Z,999.55
2022-09-04T03:32:35.759Z,999.66
2022-09-04T03:38:25.553Z,999.62
2022-09-04T03:44:16.367Z,999.67
2022-09-04T03:50:06.367Z,999.63
2022-09-04T03:56:04.244Z,999.67
2022-09-04T04:01:54.237Z,999.65
2022-09-04T04:07:43.220Z,999.71
2022-09-04T04:13:36.833Z,999.72
2022-09-04T04:19:29.700Z,999.78
2022-09-04T04:25:21.514Z,999.79
2022-09-04T04:31:10.334Z,999.76
2022-09-04T04:36:56.979Z,999.77
2022-09-04T04:42:43.850Z,999.9
2022-09-04T04:48:34.530Z,999.96
2022-09-04T04:54:31.565Z,999.97
2022-09-04T05:00:16.377Z,1000.04
2022-09-04T05:06:02.071Z,1000.08
2022-09-04T05:11:50.979Z,1000.13
2022-09-04T05:17:39.840Z,1000.17
2022-09-04T05:23:30.390Z,1000.25
2022-09-04T05:29:19.937Z,1000.35
2022-09-04T05:35:11.302Z,1000.45
2022-09-04T05:41:02.348Z,1000.49
2022-09-04T05:46:53.171Z,1000.57
2022-09-04T05:52:48.187Z,1000.6
2022-09-04T05:58:39.099Z,1000.61
2022-09-04T06:04:33.547Z,1000.7
2022-09-04T06:10:20.484Z,1000.68
2022-09-04T06:16:18.346Z,1000.67
2022-09-04T06:22:13.670Z,1000.72
2022-09-04T06:28:12.515Z,1000.78
2022-09-04T06:34:01.215Z,1000.8
2022-09-04T06:39:54.694Z,1000.82
2022-09-04T06:45:43.914Z,1000.97
2022-09-04T06:51:33.750Z,1001.01
2022-09-04T06:57:25.370Z,1001.07
2022-09-04T07:03:19.904Z,1001.05
2022-09-04T07:09:08.316Z,1001.15
2022-09-04T07:14:59.707Z,1001.1
2022-09-04T07:20:50.639Z,1001.16
2022-09-04T07:26:37.534Z,1001.12
2022-09-04T07:32:22.934Z,1001.27
2022-09-04T07:38:12.879Z,1001.28
2022-09-04T07:44:00.542Z,1001.31
2022-09-04T07:49:50.235Z,1001.38
2022-09-04T07:55:41.748Z,1001.4
2022-09-04T08:01:41.503Z,1001.41
2022-09-04T08:07:29.537Z,1001.45
2022-09-04T08:13:26.447Z,1001.57
2022-09-04T08:19:16.802Z,1001.59
2022-09-04T08:25:05.723Z,1001.57
2022-09-04T08:30:54.411Z,1001.57
2022-09-04T08:36:43.335Z,1001.63
2022-09-04T08:42:37.762Z,1001.67
2022-09-04T08:48:30.592Z,1001.68
2022-09-04T08:54:41.324Z,1001.79
2022-09-04T09:00:29.748Z,1001.81
2022-09-04T09:06:29.687Z,1001.91
2022-09-04T09:12:24.194Z,1001.94
2022-09-04T09:18:21.022Z,1001.88
2022-09-04T09:24:15.850Z,1001.88
2022-09-04T09:30:15.830Z,1001.93
2022-09-04T09:36:16.458Z,1001.92
2022-09-04T09:42:11.344Z,1001.99
2022-09-04T09:48:11.617Z,1001.97
2022-09-04T09:54:09.160Z,1001.99
2022-09-04T10:00:00.862Z,1002.05
2022-09-04T10:05:59.963Z,1002
2022-09-04T10:11:57.526Z,1002.02
2022-09-04T10:17:52.242Z,1001.96
2022-09-04T10:23:46.754Z,1001.98
2022-09-04T10:29:37.882Z,1001.98
2022-09-04T10:35:23.843Z,1001.9
2022-09-04T10:41:18.647Z,1001.91
2022-09-04T10:47:09.520Z,1001.94
2022-09-04T10:53:12.768Z,1001.86
2022-09-04T10:59:13.484Z,1001.84
2022-09-04T11:05:11.302Z,1001.76
2022-09-04T11:11:07.349Z,1001.82
2022-09-04T11:17:03.807Z,1001.71
2022-09-04T11:23:00.116Z,1001.79
2022-09-04T11:28:58.570Z,1001.76
2022-09-04T11:34:52.849Z,1001.71
2022-09-04T11:40:48.512Z,1001.78
2022-09-04T11:46:43.217Z,1001.78
2022-09-04T11:52:32.636Z,1001.9
2022-09-04T11:58:26.486Z,1001.88
2022-09-04T12:04:21.614Z,1001.86
2022-09-04T12:10:18.674Z,1001.83
2022-09-04T12:16:15.965Z,1001.89
2022-09-04T12:22:13.462Z,1001.89
2022-09-04T12:28:05.727Z,1001.85
2022-09-04T12:34:03.399Z,1001.83
2022-09-04T12:40:00.694Z,1001.84
2022-09-04T12:45:52.606Z,1001.82
2022-09-04T12:51:43.650Z,1001.82
2022-09-04T12:57:33.095Z,1001.94
2022-09-04T13:03:22.213Z,1001.9
2022-09-04T13:09:11.806Z,1001.96
2022-09-04T13:15:02.658Z,1001.96
2022-09-04T13:20:51.614Z,1001.92
2022-09-04T13:26:40.505Z,1001.99
2022-09-04T13:32:34.158Z,1001.97
2022-09-04T13:38:25.606Z,1001.84
2022-09-04T13:44:17.469Z,1001.91
2022-09-04T13:50:03.288Z,1001.86
2022-09-04T13:55:51.110Z,1001.87
2022-09-04T14:01:36.831Z,1001.81
2022-09-04T14:07:24.441Z,1001.79
2022-09-04T14:13:13.899Z,1001.69
2022-09-04T14:19:15.987Z,1001.82
2022-09-04T14:25:11.852Z,1001.69
2022-09-04T14:31:02.618Z,1001.67
2022-09-04T14:36:57.259Z,1001.7
2022-09-04T14:42:46.279Z,1001.64
2022-09-04T14:48:34.557Z,1001.61
2022-09-04T14:54:23.714Z,1001.55
2022-09-04T15:00:10.854Z,1001.59
2022-09-04T15:05:56.627Z,1001.59
2022-09-04T15:11:40.143Z,1001.55
2022-09-04T15:17:26.623Z,1001.53
2022-09-04T15:23:15.339Z,1001.47
2022-09-04T15:29:03.071Z,1001.45
2022-09-04T15:34:46.913Z,1001.44
2022-09-04T15:40:33.513Z,1001.42
2022-09-04T15:46:20.706Z,1001.53
2022-09-04T15:52:12.194Z,1001.49
2022-09-04T15:58:00.408Z,1001.5
2022-09-04T16:03:49.216Z,1001.52
2022-09-04T16:09:34.629Z,1001.53
2022-09-04T16:15:21.909Z,1001.52
2022-09-04T16:21:09.384Z,1001.48
2022-09-04T16:26:54.851Z,1001.42
2022-09-04T16:32:43.447Z,1001.44
2022-09-04T16:38:32.915Z,1001.43
2022-09-04T16:44:27.593Z,1001.43
2022-09-04T16:50:17.375Z,1001.39
2022-09-04T16:56:03.450Z,1001.37
2022-09-04T17:01:49.949Z,1001.49
2022-09-04T17:07:38.268Z,1001.61
2022-09-04T17:13:29.078Z,1001.57
2022-09-04T17:19:18.038Z,1001.61
2022-09-04T17:29:05.803Z,1001.6
2022-09-04T17:31:13.667Z,1001.54
2022-09-04T17:40:13.725Z,1001.49
2022-09-04T17:43:23.095Z,1001.54
2022-09-04T17:49:13.624Z,1001.53
2022-09-04T17:54:57.679Z,1001.57
2022-09-04T18:00:47.091Z,1001.55
2022-09-04T18:06:35.425Z,1001.62
2022-09-04T18:12:22.919Z,1001.61
2022-09-04T18:18:12.909Z,1001.69
2022-09-04T18:24:01.635Z,1001.68
2022-09-04T18:31:48.321Z,1001.74
2022-09-04T18:37:15.541Z,1001.86
2022-09-04T18:45:32.638Z,1001.93
2022-09-04T18:50:41.521Z,1001.95
2022-09-04T18:54:29.816Z,1001.99
2022-09-04T19:00:18.811Z,1001.98
2022-09-04T19:06:10.574Z,1001.98
2022-09-04T19:11:56.165Z,1002.02
2022-09-04T19:17:40.232Z,1002.17
2022-09-04T19:23:27.857Z,1002.2
2022-09-04T19:29:17.539Z,1002.18
2022-09-04T19:35:04.326Z,1002.18
2022-09-04T19:43:10.281Z,1002.19
2022-09-04T19:47:02.212Z,1002.19
2022-09-04T19:53:21.015Z,1002.22
2022-09-04T19:58:55.846Z,1002.17
2022-09-04T20:04:43.939Z,1002.23
2022-09-04T20:10:31.831Z,1002.22
2022-09-04T20:16:22.778Z,1002.34
2022-09-04T20:22:11.279Z,1002.36
2022-09-04T20:27:57.391Z,1002.37
2022-09-04T20:33:42.991Z,1002.36
2022-09-04T20:39:28.900Z,1002.39
2022-09-04T20:46:32.956Z,1002.39
2022-09-04T20:52:47.607Z,1002.41
2022-09-04T20:58:36.844Z,1002.44
2022-09-04T21:03:38.479Z,1002.37
2022-09-04T21:09:29.513Z,1002.34
2022-09-04T21:15:19.146Z,1002.31
2022-09-04T21:21:10.061Z,1002.4
2022-09-04T21:27:06.984Z,1002.39
2022-09-04T21:33:27.439Z,1002.4
2022-09-04T21:39:18.616Z,1002.4
2022-09-04T21:45:12.544Z,1002.4
2022-09-04T21:51:23.290Z,1002.44
2022-09-04T22:00:19.251Z,1002.5
2022-09-04T22:03:35.992Z,1002.53
2022-09-04T22:12:25.826Z,1002.61
2022-09-04T22:15:34.511Z,1002.66
2022-09-04T22:21:25.595Z,1002.63
2022-09-04T22:27:20.067Z,1002.62
2022-09-04T22:33:20.445Z,1002.71
2022-09-04T22:39:31.629Z,1002.72
2022-09-04T22:45:30.058Z,1002.67
2022-09-04T22:51:18.363Z,1002.71
2022-09-04T22:57:07.095Z,1002.69
2022-09-04T23:03:11.725Z,1002.74
2022-09-04T23:12:10.882Z,1002.71
2022-09-04T23:15:14.415Z,1002.73
2022-09-04T23:24:10.104Z,1002.72
2022-09-04T23:27:28.225Z,1002.73
2022-09-04T23:33:28.773Z,1002.67
2022-09-04T23:39:26.921Z,1002.58
2022-09-04T23:45:38.148Z,1002.53
2022-09-04T23:51:38.696Z,1002.56
2022-09-04T23:57:27.994Z,1002.55
